createdAt,value
2023-05-19T00:04:18.259Z,8.95
2023-05-19T00:09:20.743Z,8.94
2023-05-19T00:14:23.129Z,8.94
2023-05-19T00:19:25.745Z,8.90
2023-05-19T00:24:28.329Z,8.87
2023-05-19T00:29:30.499Z,8.86
2023-05-19T00:34:32.994Z,8.79
2023-05-19T00:39:35.178Z,8.83
2023-05-19T00:44:41.460Z,8.82
2023-05-19T00:49:43.643Z,8.81
2023-05-19T00:54:46.286Z,8.80
2023-05-19T00:59:48.860Z,8.77
2023-05-19T01:04:51.755Z,8.74
2023-05-19T01:09:54.435Z,8.73
2023-05-19T01:14:58.768Z,8.75
2023-05-19T01:20:10.779Z,8.77
2023-05-19T01:25:37.852Z,8.79
2023-05-19T01:30:41.361Z,8.84
2023-05-19T01:35:45.409Z,8.87
2023-05-19T01:40:49.131Z,8.88
2023-05-19T01:45:52.056Z,8.88
2023-05-19T01:50:57.068Z,8.91
2023-05-19T01:55:59.560Z,8.95
2023-05-19T02:01:27.510Z,8.99
2023-05-19T02:06:46.034Z,9.05
2023-05-19T02:12:14.417Z,9.07
2023-05-19T02:17:20.152Z,9.11
2023-05-19T02:22:22.258Z,9.11
2023-05-19T02:27:24.647Z,9.17
2023-05-19T02:32:26.876Z,9.19
2023-05-19T02:37:29.428Z,9.15
2023-05-19T02:42:31.716Z,9.11
2023-05-19T02:47:36.217Z,9.08
2023-05-19T02:52:39.461Z,9.06
2023-05-19T02:57:42.054Z,9.07
2023-05-19T03:02:44.417Z,9.08
2023-05-19T03:07:47.249Z,9.08
2023-05-19T03:12:49.426Z,9.07
2023-05-19T03:17:51.808Z,9.08
2023-05-19T03:22:54.104Z,9.09
2023-05-19T03:27:56.398Z,9.12
2023-05-19T03:33:01.360Z,9.16
2023-05-19T03:38:03.632Z,9.18
2023-05-19T03:43:05.919Z,9.27
2023-05-19T03:48:08.172Z,9.33
2023-05-19T03:53:10.490Z,9.40
2023-05-19T03:58:14.213Z,9.54
2023-05-19T04:03:16.638Z,9.61
2023-05-19T04:08:18.988Z,9.68
2023-05-19T04:13:21.389Z,9.69
2023-05-19T04:18:23.768Z,9.78
2023-05-19T04:23:26.164Z,9.85
2023-05-19T04:28:28.546Z,9.98
2023-05-19T04:33:30.634Z,10.13
2023-05-19T04:38:33.326Z,10.19
2023-05-19T04:43:35.611Z,10.31
2023-05-19T04:48:37.876Z,10.42
2023-05-19T04:53:41.309Z,10.52
2023-05-19T04:58:44.162Z,10.65
2023-05-19T05:03:46.401Z,10.79
2023-05-19T05:08:49.246Z,10.94
2023-05-19T05:13:52.096Z,11.05
2023-05-19T05:18:54.605Z,11.23
2023-05-19T05:23:57.043Z,11.49
2023-05-19T05:28:59.233Z,11.71
2023-05-19T05:34:01.372Z,11.95
2023-05-19T05:39:05.266Z,12.22
2023-05-19T05:44:07.554Z,12.42
2023-05-19T05:49:12.090Z,12.66
2023-05-19T05:54:18.803Z,12.77
2023-05-19T05:59:21.072Z,12.97
2023-05-19T06:04:23.364Z,13.20
2023-05-19T06:09:25.565Z,13.34
2023-05-19T06:14:28.029Z,13.48
2023-05-19T06:19:30.802Z,13.66
2023-05-19T06:24:33.221Z,13.77
2023-05-19T06:29:35.509Z,14.05
2023-05-19T06:34:40.051Z,14.42
2023-05-19T06:39:42.229Z,14.75
2023-05-19T06:44:44.415Z,14.99
2023-05-19T06:49:50.403Z,15.22
2023-05-19T06:54:52.675Z,15.38
2023-05-19T06:59:55.021Z,15.64
2023-05-19T07:04:57.261Z,15.89
2023-05-19T07:09:59.636Z,16.10
2023-05-19T07:15:01.825Z,16.27
2023-05-19T07:20:09.640Z,16.64
2023-05-19T07:25:11.826Z,16.98
2023-05-19T07:30:14.017Z,17.54
2023-05-19T07:35:16.394Z,17.95
2023-05-19T07:40:18.892Z,18.34
2023-05-19T07:45:21.276Z,18.48
2023-05-19T07:50:23.572Z,18.64
2023-05-19T07:55:26.177Z,18.76
2023-05-19T08:00:28.496Z,18.89
2023-05-19T08:05:30.941Z,19.07
2023-05-19T08:10:33.266Z,19.30
2023-05-19T08:15:36.470Z,19.27
2023-05-19T08:20:38.851Z,19.33
2023-05-19T08:25:41.523Z,19.54
2023-05-19T08:30:43.800Z,19.72
2023-05-19T08:35:46.292Z,19.83
2023-05-19T08:40:48.582Z,19.84
2023-05-19T08:45:53.839Z,19.83
2023-05-19T08:51:32.837Z,19.77
2023-05-19T08:56:35.477Z,19.86
2023-05-19T09:01:39.422Z,19.96
2023-05-19T09:06:41.997Z,19.90
2023-05-19T09:11:46.894Z,19.87
2023-05-19T09:16:52.041Z,20.00
2023-05-19T09:22:04.702Z,20.24
2023-05-19T09:27:06.911Z,20.20
2023-05-19T09:32:09.113Z,20.04
2023-05-19T09:37:13.023Z,19.85
2023-05-19T09:42:16.434Z,19.80
2023-05-19T09:47:18.514Z,19.72
2023-05-19T09:52:21.586Z,19.70
2023-05-19T09:57:28.215Z,19.84
2023-05-19T10:02:32.109Z,19.95
2023-05-19T10:07:34.931Z,20.06
2023-05-19T10:12:39.061Z,19.48
2023-05-19T10:17:43.469Z,19.13
2023-05-19T10:22:46.556Z,19.17
2023-05-19T10:28:04.764Z,19.34
2023-05-19T10:33:11.359Z,19.34
2023-05-19T10:38:34.247Z,19.08
2023-05-19T10:44:24.652Z,19.15
2023-05-19T10:49:27.297Z,19.20
2023-05-19T10:54:45.677Z,18.94
2023-05-19T10:59:49.218Z,18.51
2023-05-19T11:04:52.221Z,18.42
2023-05-19T11:09:54.513Z,18.17
2023-05-19T11:14:57.933Z,17.89
2023-05-19T11:20:00.113Z,17.83
2023-05-19T11:25:03.708Z,17.53
2023-05-19T11:30:11.136Z,17.29
2023-05-19T11:35:14.232Z,17.01
2023-05-19T11:40:17.134Z,16.96
2023-05-19T11:45:31.446Z,16.87
2023-05-19T11:50:36.556Z,16.66
2023-05-19T11:55:44.206Z,16.29
2023-05-19T12:00:47.065Z,16.14
2023-05-19T12:05:49.826Z,15.96
2023-05-19T12:10:52.359Z,15.77
2023-05-19T12:16:00.759Z,15.68
2023-05-19T12:21:03.546Z,15.43
2023-05-19T12:26:06.305Z,15.30
2023-05-19T12:31:08.626Z,15.11
2023-05-19T12:36:13.218Z,14.87
2023-05-19T12:41:17.969Z,14.85
2023-05-19T12:46:20.129Z,14.87
2023-05-19T12:51:22.226Z,14.91
2023-05-19T12:56:26.692Z,14.76
2023-05-19T13:01:29.148Z,14.69
2023-05-19T13:06:32.691Z,14.49
2023-05-19T13:11:34.768Z,14.33
2023-05-19T13:16:36.818Z,14.11
2023-05-19T13:21:38.912Z,14.25
2023-05-19T13:26:41.193Z,14.59
2023-05-19T13:31:43.213Z,14.71
2023-05-19T13:36:47.778Z,14.62
2023-05-19T13:41:50.322Z,14.42
2023-05-19T13:46:52.597Z,14.26
2023-05-19T13:51:58.282Z,14.02
2023-05-19T13:57:00.867Z,13.85
2023-05-19T14:02:05.129Z,13.75
2023-05-19T14:07:09.271Z,13.61
2023-05-19T14:12:12.020Z,13.50
2023-05-19T14:17:14.205Z,13.46
2023-05-19T14:22:17.823Z,13.60
2023-05-19T14:27:20.106Z,13.81
2023-05-19T14:32:22.355Z,14.06
2023-05-19T14:37:28.576Z,14.26
2023-05-19T14:42:30.869Z,14.43
2023-05-19T14:47:33.171Z,14.71
2023-05-19T14:52:35.328Z,15.04
2023-05-19T14:57:37.714Z,15.02
2023-05-19T15:02:40.059Z,14.81
2023-05-19T15:07:43.217Z,14.70
2023-05-19T15:12:46.217Z,14.62
2023-05-19T15:17:48.552Z,14.45
2023-05-19T15:22:50.786Z,14.42
2023-05-19T15:27:52.974Z,14.55
2023-05-19T15:32:56.592Z,14.74
2023-05-19T15:38:04.825Z,14.88
2023-05-19T15:43:07.106Z,14.84
2023-05-19T15:48:09.342Z,14.68
2023-05-19T15:53:11.578Z,14.53
2023-05-19T15:58:15.198Z,14.34
2023-05-19T16:03:17.789Z,14.22
2023-05-19T16:08:20.083Z,14.09
2023-05-19T16:13:22.780Z,14.07
2023-05-19T16:18:24.860Z,14.04
2023-05-19T16:23:27.151Z,13.92
2023-05-19T16:28:29.330Z,13.85
2023-05-19T16:33:31.515Z,13.82
2023-05-19T16:38:33.695Z,13.79
2023-05-19T16:43:36.091Z,13.75
2023-05-19T16:48:38.269Z,13.71
2023-05-19T16:53:40.866Z,13.62
2023-05-19T16:58:43.051Z,13.58
2023-05-19T17:03:45.271Z,13.55
2023-05-19T17:08:49.042Z,13.48
2023-05-19T17:13:51.069Z,13.39
2023-05-19T17:18:53.235Z,13.33
2023-05-19T17:23:56.040Z,13.24
2023-05-19T17:28:58.974Z,13.17
2023-05-19T17:34:01.411Z,13.19
2023-05-19T17:39:03.717Z,13.15
2023-05-19T17:44:06.494Z,13.12
2023-05-19T17:49:10.212Z,13.12
2023-05-19T17:54:12.806Z,13.11
2023-05-19T17:59:15.510Z,13.10
2023-05-19T18:04:18.317Z,13.08
2023-05-19T18:09:23.307Z,13.03
2023-05-19T18:14:25.653Z,12.98
2023-05-19T18:19:29.015Z,12.93
2023-05-19T18:24:31.245Z,12.92
2023-05-19T18:29:34.446Z,12.87
2023-05-19T18:34:36.525Z,12.83
2023-05-19T18:39:38.822Z,12.78
2023-05-19T18:44:42.031Z,12.77
2023-05-19T18:49:44.617Z,12.74
2023-05-19T18:54:47.239Z,12.71
2023-05-19T18:59:49.298Z,12.65
2023-05-19T19:04:51.620Z,12.59
2023-05-19T19:09:53.970Z,12.57
2023-05-19T19:14:56.203Z,12.54
2023-05-19T19:19:58.476Z,12.55
2023-05-19T19:25:00.835Z,12.58
2023-05-19T19:30:04.343Z,12.56
2023-05-19T19:35:07.142Z,12.53
2023-05-19T19:40:09.718Z,12.53
2023-05-19T19:45:14.779Z,12.48
2023-05-19T19:50:18.421Z,12.41
2023-05-19T19:55:20.734Z,12.40
2023-05-19T20:00:23.087Z,12.38
2023-05-19T20:05:25.633Z,12.36
2023-05-19T20:10:28.084Z,12.37
2023-05-19T20:15:30.304Z,12.35
2023-05-19T20:20:32.566Z,12.33
2023-05-19T20:25:51.054Z,12.30
2023-05-19T20:31:00.983Z,12.27
2023-05-19T20:36:05.814Z,12.27
2023-05-19T20:41:07.965Z,12.26
2023-05-19T20:46:10.361Z,12.24
2023-05-19T20:51:12.777Z,12.22
2023-05-19T20:56:15.987Z,12.18
2023-05-19T21:01:18.218Z,12.16
2023-05-19T21:06:20.284Z,12.13
2023-05-19T21:11:22.649Z,12.12
2023-05-19T21:16:25.768Z,12.10
2023-05-19T21:21:28.352Z,12.06
2023-05-19T21:26:30.584Z,12.05
2023-05-19T21:31:34.856Z,12.00
2023-05-19T21:36:38.024Z,12.00
2023-05-19T21:41:40.164Z,12.00
2023-05-19T21:46:42.668Z,12.01
2023-05-19T21:51:44.938Z,12.00
2023-05-19T21:56:47.232Z,11.99
2023-05-19T22:01:49.678Z,11.96
2023-05-19T22:06:52.211Z,11.97
2023-05-19T22:11:54.587Z,11.95
2023-05-19T22:16:56.776Z,11.94
2023-05-19T22:22:06.018Z,11.94
2023-05-19T22:27:15.894Z,11.91
2023-05-19T22:32:19.197Z,11.91
2023-05-19T22:37:23.134Z,11.91
2023-05-19T22:42:25.618Z,11.91
2023-05-19T22:47:29.302Z,11.92
2023-05-19T22:52:31.622Z,11.91
2023-05-19T22:57:33.903Z,11.94
2023-05-19T23:02:36.236Z,11.97
2023-05-19T23:08:37.074Z,12.00
2023-05-19T23:13:39.138Z,12.05
2023-05-19T23:18:41.438Z,12.01
2023-05-19T23:23:43.499Z,12.00
2023-05-19T23:28:45.684Z,12.02
2023-05-19T23:33:48.075Z,12.02
2023-05-19T23:38:50.670Z,12.01
2023-05-19T23:43:52.864Z,12.05
2023-05-19T23:48:55.050Z,12.07
2023-05-19T23:53:57.538Z,12.06
2023-05-19T23:58:59.621Z,12.06
